createdAt,value
2024-03-12T00:00:24.873Z,85018.56
2024-03-12T00:02:52.768Z,85018.56
2024-03-12T00:05:21.580Z,85015.25
2024-03-12T00:07:51.130Z,85015.25
2024-03-12T00:10:22.461Z,85011.56
2024-03-12T00:12:53.812Z,85026.31
2024-03-12T00:15:27.115Z,85018.22
2024-03-12T00:17:56.519Z,85029.31
2024-03-12T00:20:35.222Z,85028.56
2024-03-12T00:23:03.723Z,85029.66
2024-03-12T00:25:32.154Z,85032.25
2024-03-12T00:28:00.579Z,85027.06
2024-03-12T00:30:29.693Z,85009.75
2024-03-12T00:33:02.411Z,85028.56
2024-03-12T00:35:34.309Z,85032.25
2024-03-12T00:38:05.046Z,85029.66
2024-03-12T00:40:35.658Z,85010.13
2024-03-12T00:43:10.172Z,85025.97
2024-03-12T00:45:43.088Z,85032.25
2024-03-12T00:48:17.253Z,85031.16
2024-03-12T00:50:47.654Z,85031.53
2024-03-12T00:53:15.610Z,85028.56
2024-03-12T00:55:48.981Z,85031.53
2024-03-12T00:58:17.400Z,85029.31
2024-03-12T01:00:47.184Z,85034.47
2024-03-12T01:03:15.291Z,85034.84
2024-03-12T01:05:44.270Z,85035.91
2024-03-12T01:08:13.610Z,85034.41
2024-03-12T01:10:41.842Z,85036.66
2024-03-12T01:13:13.015Z,85034.47
2024-03-12T01:15:41.852Z,85044.06
2024-03-12T01:18:10.363Z,85039.63
2024-03-12T01:20:38.479Z,85002.78
2024-03-12T01:23:07.614Z,85050.72
2024-03-12T01:25:37.825Z,85049.22
2024-03-12T01:28:08.425Z,85035.97
2024-03-12T01:30:38.465Z,85058.78
2024-03-12T01:33:07.684Z,85058.41
2024-03-12T01:35:41.076Z,85054.28
2024-03-12T01:38:11.890Z,85044.69
2024-03-12T01:40:40.913Z,85049.09
2024-03-12T01:43:09.477Z,85053.88
2024-03-12T01:45:38.314Z,85054.28
2024-03-12T01:48:10.292Z,85052.84
2024-03-12T01:50:40.940Z,85060.97
2024-03-12T01:53:09.959Z,85060.66
2024-03-12T01:55:41.687Z,85061.75
2024-03-12T01:58:20.092Z,85060.31
2024-03-12T02:00:48.698Z,85066.94
2024-03-12T02:03:20.505Z,85070.66
2024-03-12T02:05:49.072Z,85075.44
2024-03-12T02:08:18.745Z,85067.31
2024-03-12T02:10:47.452Z,85069.16
2024-03-12T02:13:16.581Z,85077.66
2024-03-12T02:15:44.658Z,85082.44
2024-03-12T02:18:12.276Z,85080.59
2024-03-12T02:20:40.322Z,85079.84
2024-03-12T02:23:08.146Z,85082.78
2024-03-12T02:25:36.608Z,85076.50
2024-03-12T02:28:04.749Z,85084.59
2024-03-12T02:30:32.996Z,85081.66
2024-03-12T02:33:01.234Z,85070.94
2024-03-12T02:35:28.684Z,85082.75
2024-03-12T02:37:56.645Z,85082.75
2024-03-12T02:40:24.223Z,85083.09
2024-03-12T02:42:51.771Z,85086.75
2024-03-12T02:45:22.510Z,85084.91
2024-03-12T02:47:51.366Z,85088.97
2024-03-12T02:50:19.854Z,85087.13
2024-03-12T02:52:47.783Z,85083.81
2024-03-12T02:55:15.962Z,85088.59
2024-03-12T02:57:43.733Z,85091.53
2024-03-12T03:00:16.305Z,85089.72
2024-03-12T03:02:45.717Z,85104.91
2024-03-12T03:05:14.810Z,85100.53
2024-03-12T03:07:43.797Z,85105.31
2024-03-12T03:10:13.738Z,85117.09
2024-03-12T03:12:43.464Z,85116.72
2024-03-12T03:15:15.109Z,85115.94
2024-03-12T03:17:44.717Z,85117.75
2024-03-12T03:20:13.654Z,85120.31
2024-03-12T03:22:41.506Z,85110.69
2024-03-12T03:25:13.600Z,85114.72
2024-03-12T03:27:41.626Z,85116.88
2024-03-12T03:30:11.562Z,85115.03
2024-03-12T03:32:40.819Z,85114.31
2024-03-12T03:35:08.906Z,85126.84
2024-03-12T03:37:37.014Z,85116.88
2024-03-12T03:40:06.190Z,85111.00
2024-03-12T03:42:34.388Z,85124.66
2024-03-12T03:45:02.662Z,85119.16
2024-03-12T03:47:36.424Z,85125.41
2024-03-12T03:50:09.276Z,85123.59
2024-03-12T03:52:41.645Z,85130.22
2024-03-12T03:55:10.912Z,85139.81
2024-03-12T03:57:38.896Z,85137.97
2024-03-12T04:00:14.484Z,85142.41
2024-03-12T04:02:45.002Z,85136.88
2024-03-12T04:05:13.673Z,85136.50
2024-03-12T04:07:42.564Z,85133.56
2024-03-12T04:10:14.792Z,85145.00
2024-03-12T04:12:48.649Z,85129.91
2024-03-12T04:15:16.408Z,85140.63
2024-03-12T04:17:45.800Z,85138.06
2024-03-12T04:20:14.282Z,85135.88
2024-03-12T04:22:45.010Z,85136.28
2024-03-12T04:25:14.264Z,85144.38
2024-03-12T04:27:42.593Z,85139.22
2024-03-12T04:30:11.335Z,85138.84
2024-03-12T04:32:40.840Z,85137.78
2024-03-12T04:35:14.299Z,85142.59
2024-03-12T04:37:42.700Z,85144.81
2024-03-12T04:40:13.026Z,85148.16
2024-03-12T04:42:41.501Z,85151.84
2024-03-12T04:45:10.095Z,85146.28
2024-03-12T04:47:43.254Z,85153.66
2024-03-12T04:50:13.549Z,85145.91
2024-03-12T04:52:45.561Z,85158.47
2024-03-12T04:55:14.968Z,85147.03
2024-03-12T04:57:42.761Z,85152.19
2024-03-12T05:00:20.651Z,85155.13
2024-03-12T05:02:50.986Z,85155.50
2024-03-12T05:05:19.810Z,85128.50
2024-03-12T05:07:48.229Z,85142.38
2024-03-12T05:10:16.079Z,85146.00
2024-03-12T05:12:46.954Z,85154.13
2024-03-12T05:15:14.820Z,85162.19
2024-03-12T05:17:42.737Z,85161.81
2024-03-12T05:20:19.620Z,85129.97
2024-03-12T05:22:48.309Z,85146.13
2024-03-12T05:25:28.372Z,85145.34
2024-03-12T05:27:57.129Z,85111.06
2024-03-12T05:30:25.114Z,85151.63
2024-03-12T05:32:55.506Z,85146.38
2024-03-12T05:35:24.391Z,85142.91
2024-03-12T05:38:05.001Z,85130.91
2024-03-12T05:41:07.264Z,85135.19
2024-03-12T05:43:55.092Z,85132.09
2024-03-12T05:46:49.011Z,85131.22
2024-03-12T05:49:17.261Z,85133.28
2024-03-12T05:51:45.495Z,85138.00
2024-03-12T05:54:12.872Z,85126.75
2024-03-12T05:56:41.028Z,85142.56
2024-03-12T05:59:08.997Z,85139.81
2024-03-12T06:01:36.999Z,85134.22
2024-03-12T06:04:06.439Z,85138.88
2024-03-12T06:06:34.441Z,85140.59
2024-03-12T06:09:02.487Z,85129.69
2024-03-12T06:11:31.385Z,85130.69
2024-03-12T06:14:02.189Z,85129.47
2024-03-12T06:16:31.749Z,85133.38
2024-03-12T06:18:59.832Z,85136.03
2024-03-12T06:21:27.842Z,85124.72
2024-03-12T06:23:55.569Z,85127.00
2024-03-12T06:26:23.872Z,85119.00
2024-03-12T06:28:51.781Z,85130.38
2024-03-12T06:31:20.397Z,85127.78
2024-03-12T06:33:48.176Z,85127.06
2024-03-12T06:36:17.028Z,85127.69
2024-03-12T06:38:45.305Z,85115.22
2024-03-12T06:41:12.851Z,85116.59
2024-03-12T06:43:42.440Z,85114.97
2024-03-12T06:46:13.464Z,85106.47
2024-03-12T06:48:43.107Z,85111.78
2024-03-12T06:51:12.197Z,85119.50
2024-03-12T06:53:39.736Z,85108.81
2024-03-12T06:56:08.667Z,85117.34
2024-03-12T06:58:40.652Z,85114.84
2024-03-12T07:01:11.315Z,85119.94
2024-03-12T07:03:41.488Z,85134.25
2024-03-12T07:06:09.471Z,85124.28
2024-03-12T07:08:40.462Z,85111.94
2024-03-12T07:11:09.317Z,85127.41
2024-03-12T07:13:41.741Z,85116.66
2024-03-12T07:16:11.546Z,85119.47
2024-03-12T07:18:39.957Z,85125.59
2024-03-12T07:21:07.662Z,85130.50
2024-03-12T07:23:36.345Z,85122.66
2024-03-12T07:26:04.326Z,85132.03
2024-03-12T07:28:32.373Z,85134.13
2024-03-12T07:31:00.263Z,85122.28
2024-03-12T07:33:28.891Z,85123.34
2024-03-12T07:35:56.663Z,85110.97
2024-03-12T07:38:25.694Z,85099.28
2024-03-12T07:40:53.692Z,85113.94
2024-03-12T07:43:21.902Z,85112.88
2024-03-12T07:45:49.679Z,85105.31
2024-03-12T07:48:17.462Z,85108.56
2024-03-12T07:50:45.598Z,85099.69
2024-03-12T07:53:14.030Z,85101.47
2024-03-12T07:55:43.948Z,85102.88
2024-03-12T07:58:12.622Z,85105.66
2024-03-12T08:00:40.648Z,85106.78
2024-03-12T08:03:08.959Z,85097.78
2024-03-12T08:05:37.536Z,85092.63
2024-03-12T08:08:07.795Z,85097.13
2024-03-12T08:10:35.636Z,85095.09
2024-03-12T08:13:03.458Z,85088.41
2024-03-12T08:15:31.151Z,85095.97
2024-03-12T08:18:06.150Z,85074.09
2024-03-12T08:20:40.994Z,85086.47
2024-03-12T08:23:08.632Z,85076.34
2024-03-12T08:25:49.946Z,85075.94
2024-03-12T08:28:23.071Z,85072.56
2024-03-12T08:30:51.212Z,85070.28
2024-03-12T08:33:20.600Z,85086.06
2024-03-12T08:35:48.291Z,85079.03
2024-03-12T08:38:16.473Z,85072.44
2024-03-12T08:40:44.598Z,85066.16
2024-03-12T08:43:13.558Z,85079.03
2024-03-12T08:45:41.321Z,85072.03
2024-03-12T08:48:09.133Z,85072.03
2024-03-12T08:50:37.144Z,85079.59
2024-03-12T08:53:05.573Z,85069.63
2024-03-12T08:55:33.658Z,85061.91
2024-03-12T08:58:01.431Z,85064.06
2024-03-12T09:00:30.409Z,85060.19
2024-03-12T09:03:01.126Z,85055.22
2024-03-12T09:05:28.751Z,85048.94
2024-03-12T09:07:56.674Z,85051.03
2024-03-12T09:10:24.379Z,85040.47
2024-03-12T09:12:51.868Z,85045.63
2024-03-12T09:15:21.740Z,85042.16
2024-03-12T09:17:51.143Z,85036.13
2024-03-12T09:20:18.762Z,85036.38
2024-03-12T09:22:46.417Z,85026.28
2024-03-12T09:25:15.785Z,85021.72
2024-03-12T09:27:48.052Z,85026.53
2024-03-12T09:30:18.523Z,85013.00
2024-03-12T09:32:46.302Z,85011.53
2024-03-12T09:35:14.071Z,85003.28
2024-03-12T09:37:42.080Z,85007.91
2024-03-12T09:40:13.222Z,84995.06
2024-03-12T09:42:45.907Z,85006.09
2024-03-12T09:45:13.963Z,84989.78
2024-03-12T09:47:43.716Z,84997.06
2024-03-12T09:50:13.452Z,84989.91
2024-03-12T09:52:41.615Z,84982.47
2024-03-12T09:55:12.982Z,84976.03
2024-03-12T09:57:46.321Z,84969.25
2024-03-12T10:00:20.721Z,84966.00
2024-03-12T10:02:49.701Z,84968.19
2024-03-12T10:05:24.697Z,84962.97
2024-03-12T10:08:15.151Z,84961.38
2024-03-12T10:10:48.092Z,84960.69
2024-03-12T10:13:18.159Z,84951.66
2024-03-12T10:16:05.336Z,84950.63
2024-03-12T10:18:40.662Z,84948.28
2024-03-12T10:21:08.983Z,84946.03
2024-03-12T10:23:41.649Z,84947.09
2024-03-12T10:26:18.250Z,84951.81
2024-03-12T10:28:47.306Z,84941.06
2024-03-12T10:31:16.459Z,84916.59
2024-03-12T10:33:52.497Z,84927.34
2024-03-12T10:36:34.508Z,84926.94
2024-03-12T10:39:08.265Z,84930.47
2024-03-12T10:41:36.390Z,84924.19
2024-03-12T10:44:09.071Z,84916.75
2024-03-12T10:46:37.829Z,84919.72
2024-03-12T10:49:11.607Z,84901.75
2024-03-12T10:51:44.401Z,84920.47
2024-03-12T10:54:15.724Z,84919.06
2024-03-12T10:56:49.540Z,84907.56
2024-03-12T10:59:20.231Z,84910.50
2024-03-12T11:01:49.716Z,84918.59
2024-03-12T11:04:18.836Z,84902.47
2024-03-12T11:06:49.686Z,84909.06
2024-03-12T11:09:23.487Z,84911.75
2024-03-12T11:11:51.504Z,84901.41
2024-03-12T11:14:19.376Z,84895.97
2024-03-12T11:16:47.590Z,84892.06
2024-03-12T11:19:20.685Z,84894.75
2024-03-12T11:21:51.226Z,84893.25
2024-03-12T11:24:44.881Z,84892.31
2024-03-12T11:27:26.661Z,84896.50
2024-03-12T11:30:09.991Z,84893.72
2024-03-12T11:32:41.145Z,84898.53
2024-03-12T11:35:31.644Z,84892.69
2024-03-12T11:38:01.999Z,84887.56
2024-03-12T11:40:41.293Z,84882.69
2024-03-12T11:43:18.362Z,84882.31
2024-03-12T11:45:49.049Z,84882.97
2024-03-12T11:48:22.027Z,84885.19
2024-03-12T11:50:56.209Z,84884.13
2024-03-12T11:53:24.811Z,84878.03
2024-03-12T11:56:09.264Z,84877.38
2024-03-12T11:58:48.429Z,84877.41
2024-03-12T12:01:21.860Z,84868.97
2024-03-12T12:04:00.944Z,84880.38
2024-03-12T12:06:29.487Z,84874.28
2024-03-12T12:09:00.803Z,84867.00
2024-03-12T12:11:30.132Z,84870.59
2024-03-12T12:14:16.493Z,84862.06
2024-03-12T12:16:44.547Z,84833.97
2024-03-12T12:19:18.704Z,84860.47
2024-03-12T12:21:53.676Z,84870.44
2024-03-12T12:24:26.621Z,84869.94
2024-03-12T12:26:57.625Z,84863.03
2024-03-12T12:29:30.401Z,84872.19
2024-03-12T12:31:59.448Z,84856.78
2024-03-12T12:34:30.016Z,84851.97
2024-03-12T12:36:58.835Z,84858.53
2024-03-12T12:39:36.675Z,84854.69
2024-03-12T12:42:11.441Z,84855.63
2024-03-12T12:44:38.969Z,84852.84
2024-03-12T12:47:07.026Z,84853.31
2024-03-12T12:49:36.694Z,84843.19
2024-03-12T12:52:05.442Z,84837.72
2024-03-12T12:54:34.626Z,84834.25
2024-03-12T12:57:03.053Z,84837.63
2024-03-12T12:59:36.150Z,84835.03
2024-03-12T13:02:15.045Z,84829.03
2024-03-12T13:04:42.863Z,84836.19
2024-03-12T13:07:10.933Z,84830.09
2024-03-12T13:09:38.719Z,84837.09
2024-03-12T13:12:11.003Z,84841.56
2024-03-12T13:14:38.904Z,84840.59
2024-03-12T13:17:10.534Z,84835.72
2024-03-12T13:19:38.424Z,84834.06
2024-03-12T13:22:10.420Z,84834.38
2024-03-12T13:24:43.615Z,84801.81
2024-03-12T13:27:11.659Z,84840.84
2024-03-12T13:29:39.568Z,84838.03
2024-03-12T13:32:07.642Z,84842.44
2024-03-12T13:34:37.240Z,84838.31
2024-03-12T13:37:07.965Z,84851.38
2024-03-12T13:39:35.958Z,84844.78
2024-03-12T13:42:06.880Z,84849.81
2024-03-12T13:44:34.656Z,84855.91
2024-03-12T13:47:04.563Z,84859.91
2024-03-12T13:49:32.897Z,84851.59
2024-03-12T13:52:01.471Z,84863.16
2024-03-12T13:54:29.253Z,84850.44
2024-03-12T13:56:57.317Z,84854.88
2024-03-12T13:59:25.467Z,84849.66
2024-03-12T14:01:54.374Z,84853.59
2024-03-12T14:04:22.734Z,84855.16
2024-03-12T14:06:50.379Z,84851.72
2024-03-12T14:09:18.888Z,84857.06
2024-03-12T14:11:49.293Z,84854.19
2024-03-12T14:14:17.453Z,84853.25
2024-03-12T14:16:48.096Z,84852.78
2024-03-12T14:19:15.870Z,84852.88
2024-03-12T14:21:43.583Z,84858.84
2024-03-12T14:24:11.830Z,84853.09
2024-03-12T14:26:39.479Z,84858.47
2024-03-12T14:29:08.080Z,84860.91
2024-03-12T14:31:35.801Z,84862.72
2024-03-12T14:34:05.708Z,84862.47
2024-03-12T14:36:33.626Z,84867.88
2024-03-12T14:39:01.297Z,84864.25
2024-03-12T14:41:29.407Z,84865.03
2024-03-12T14:43:58.606Z,84865.81
2024-03-12T14:46:26.609Z,84867.31
2024-03-12T14:48:56.465Z,84867.34
2024-03-12T14:51:24.634Z,84867.06
2024-03-12T14:53:52.501Z,84867.38
2024-03-12T14:56:20.200Z,84865.97
2024-03-12T14:58:48.178Z,84871.34
2024-03-12T15:01:16.052Z,84872.94
2024-03-12T15:03:45.086Z,84871.94
2024-03-12T15:06:13.736Z,84870.59
2024-03-12T15:08:41.806Z,84873.09
2024-03-12T15:11:09.739Z,84883.00
2024-03-12T15:13:38.086Z,84873.28
2024-03-12T15:16:08.238Z,84869.28
2024-03-12T15:18:36.734Z,84871.97
2024-03-12T15:21:06.666Z,84876.16
2024-03-12T15:23:34.460Z,84882.81
2024-03-12T15:26:03.980Z,84883.66
2024-03-12T15:28:31.642Z,84877.88
2024-03-12T15:30:59.209Z,84887.72
2024-03-12T15:33:33.171Z,84892.69
2024-03-12T15:36:01.525Z,84903.84
2024-03-12T15:38:30.004Z,84903.66
2024-03-12T15:40:58.925Z,84907.78
2024-03-12T15:43:26.784Z,84906.84
2024-03-12T15:45:54.894Z,84908.13
2024-03-12T15:48:24.884Z,84911.00
2024-03-12T15:50:53.664Z,84904.59
2024-03-12T15:53:21.464Z,84906.84
2024-03-12T15:55:49.680Z,84904.44
2024-03-12T15:58:17.771Z,84906.53
2024-03-12T16:00:45.844Z,84913.06
2024-03-12T16:03:13.714Z,84918.00
2024-03-12T16:05:43.018Z,84919.66
2024-03-12T16:08:10.819Z,84921.88
2024-03-12T16:10:39.704Z,84921.88
2024-03-12T16:13:08.735Z,84924.50
2024-03-12T16:15:37.294Z,84929.53
2024-03-12T16:18:07.122Z,84920.31
2024-03-12T16:20:34.677Z,84922.19
2024-03-12T16:23:02.407Z,84921.56
2024-03-12T16:25:30.542Z,84925.53
2024-03-12T16:27:58.416Z,84923.75
2024-03-12T16:30:26.149Z,84917.59
2024-03-12T16:32:55.034Z,84922.06
2024-03-12T16:35:24.944Z,84915.47
2024-03-12T16:37:52.760Z,84912.00
2024-03-12T16:40:21.401Z,84915.03
2024-03-12T16:42:49.884Z,84909.69
2024-03-12T16:45:17.651Z,84919.50
2024-03-12T16:47:45.513Z,84919.69
2024-03-12T16:50:16.573Z,84918.75
2024-03-12T16:52:44.906Z,84918.94
2024-03-12T16:55:12.880Z,84915.88
2024-03-12T16:57:40.983Z,84928.59
2024-03-12T17:00:15.700Z,84916.06
2024-03-12T17:02:43.923Z,84912.94
2024-03-12T17:05:14.304Z,84920.53
2024-03-12T17:07:44.065Z,84913.78
2024-03-12T17:10:14.054Z,84906.75
2024-03-12T17:12:42.752Z,84913.97
2024-03-12T17:15:11.019Z,84912.38
2024-03-12T17:17:42.978Z,84918.72
2024-03-12T17:20:11.645Z,84917.97
2024-03-12T17:22:41.879Z,84917.44
2024-03-12T17:25:14.701Z,84920.38
2024-03-12T17:27:43.238Z,84915.00
2024-03-12T17:30:12.510Z,84916.47
2024-03-12T17:32:42.116Z,84918.44
2024-03-12T17:35:14.791Z,84925.28
2024-03-12T17:37:45.119Z,84924.94
2024-03-12T17:40:17.341Z,84924.31
2024-03-12T17:42:47.121Z,84925.63
2024-03-12T17:45:17.200Z,84926.88
2024-03-12T17:47:49.549Z,84932.97
2024-03-12T17:50:23.006Z,84924.56
2024-03-12T17:52:58.692Z,84925.03
2024-03-12T17:55:28.168Z,84925.53
2024-03-12T17:57:56.671Z,84927.00
2024-03-12T18:00:25.726Z,84928.00
2024-03-12T18:02:56.448Z,84926.59
2024-03-12T18:05:24.675Z,84925.53
2024-03-12T18:07:54.964Z,84930.84
2024-03-12T18:10:27.702Z,84926.38
2024-03-12T18:12:56.427Z,84938.44
2024-03-12T18:15:25.275Z,84926.88
2024-03-12T18:17:53.712Z,84932.63
2024-03-12T18:20:25.653Z,84927.50
2024-03-12T18:22:54.556Z,84929.94
2024-03-12T18:25:22.959Z,84919.84
2024-03-12T18:27:57.501Z,84922.59
2024-03-12T18:30:26.915Z,84925.13
2024-03-12T18:32:55.815Z,84925.59
2024-03-12T18:35:24.479Z,84926.25
2024-03-12T18:37:55.277Z,84922.03
2024-03-12T18:40:23.910Z,84921.28
2024-03-12T18:42:52.864Z,84916.34
2024-03-12T18:45:23.716Z,84914.06
2024-03-12T18:47:52.413Z,84916.16
2024-03-12T18:50:22.014Z,84911.03
2024-03-12T18:52:50.147Z,84916.75
2024-03-12T18:55:19.375Z,84920.91
2024-03-12T18:57:47.660Z,84909.81
2024-03-12T19:00:20.173Z,84892.69
2024-03-12T19:02:50.086Z,84908.59
2024-03-12T19:05:19.205Z,84890.72
2024-03-12T19:07:51.875Z,84897.09
2024-03-12T19:10:21.383Z,84917.13
2024-03-12T19:12:50.758Z,84908.63
2024-03-12T19:15:22.877Z,84908.31
2024-03-12T19:17:52.475Z,84902.69
2024-03-12T19:20:21.412Z,84902.03
2024-03-12T19:22:51.955Z,84903.72
2024-03-12T19:25:20.717Z,84881.78
2024-03-12T19:27:50.470Z,84910.53
2024-03-12T19:30:26.156Z,84906.88
2024-03-12T19:32:54.591Z,84905.09
2024-03-12T19:35:23.228Z,84902.88
2024-03-12T19:37:51.215Z,84900.00
2024-03-12T19:40:23.061Z,84901.94
2024-03-12T19:42:53.693Z,84908.75
2024-03-12T19:45:29.090Z,84911.13
2024-03-12T19:47:58.044Z,84910.13
2024-03-12T19:50:28.060Z,84909.44
2024-03-12T19:52:56.828Z,84914.34
2024-03-12T19:55:32.094Z,84899.66
2024-03-12T19:58:02.035Z,84903.59
2024-03-12T20:00:32.229Z,84924.44
2024-03-12T20:03:03.617Z,84899.25
2024-03-12T20:05:34.049Z,84904.38
2024-03-12T20:08:03.475Z,84905.66
2024-03-12T20:10:31.226Z,84917.53
2024-03-12T20:12:59.842Z,84907.59
2024-03-12T20:15:29.407Z,84903.19
2024-03-12T20:17:57.236Z,84896.59
2024-03-12T20:20:24.884Z,84899.19
2024-03-12T20:22:53.006Z,84892.91
2024-03-12T20:25:23.634Z,84897.38
2024-03-12T20:27:55.187Z,84892.56
2024-03-12T20:30:28.427Z,84900.38
2024-03-12T20:33:00.122Z,84895.97
2024-03-12T20:35:29.261Z,84894.19
2024-03-12T20:37:57.202Z,84893.50
2024-03-12T20:40:27.216Z,84883.00
2024-03-12T20:43:00.403Z,84896.56
2024-03-12T20:45:30.491Z,84885.91
2024-03-12T20:47:59.678Z,84884.44
2024-03-12T20:50:27.645Z,84878.44
2024-03-12T20:52:56.128Z,84886.50
2024-03-12T20:55:25.356Z,84873.88
2024-03-12T20:57:53.654Z,84874.81
2024-03-12T21:00:34.521Z,84874.22
2024-03-12T21:03:02.642Z,84876.78
2024-03-12T21:05:31.971Z,84876.53
2024-03-12T21:08:00.082Z,84885.44
2024-03-12T21:10:28.548Z,84882.09
2024-03-12T21:12:57.255Z,84882.34
2024-03-12T21:15:24.990Z,84883.34
2024-03-12T21:17:54.531Z,84869.81
2024-03-12T21:20:34.007Z,84885.28
2024-03-12T21:23:05.081Z,84865.44
2024-03-12T21:25:34.872Z,84885.81
2024-03-12T21:28:02.914Z,84887.63
2024-03-12T21:30:30.522Z,84891.22
2024-03-12T21:32:58.794Z,84886.22
2024-03-12T21:35:26.628Z,84883.06
2024-03-12T21:37:54.530Z,84892.09
2024-03-12T21:40:24.335Z,84894.03
2024-03-12T21:42:54.875Z,84884.97
2024-03-12T21:45:22.487Z,84884.97
2024-03-12T21:47:51.260Z,84886.22
2024-03-12T21:50:19.368Z,84861.41
2024-03-12T21:52:47.264Z,84871.44
2024-03-12T21:55:15.890Z,84859.47
2024-03-12T21:57:45.315Z,84879.81
2024-03-12T22:00:20.654Z,84880.75
2024-03-12T22:02:50.071Z,84888.06
2024-03-12T22:05:21.358Z,84891.66
2024-03-12T22:07:52.156Z,84889.66
2024-03-12T22:10:20.213Z,84812.38
2024-03-12T22:12:48.792Z,84890.44
2024-03-12T22:15:16.894Z,84888.25
2024-03-12T22:17:46.152Z,84877.59
2024-03-12T22:20:20.123Z,84886.06
2024-03-12T22:22:49.249Z,84889.00
2024-03-12T22:25:18.029Z,84884.53
2024-03-12T22:27:50.209Z,84874.53
2024-03-12T22:30:18.678Z,84865.22
2024-03-12T22:32:47.551Z,84871.88
2024-03-12T22:35:15.322Z,84881.94
2024-03-12T22:37:44.956Z,84837.22
2024-03-12T22:40:14.125Z,84874.25
2024-03-12T22:42:42.708Z,84876.91
2024-03-12T22:45:12.984Z,84870.69
2024-03-12T22:47:41.583Z,84876.31
2024-03-12T22:50:10.254Z,84880.06
2024-03-12T22:52:38.208Z,84882.34
2024-03-12T22:55:07.518Z,84879.31
2024-03-12T22:57:40.063Z,84884.47
2024-03-12T23:00:27.760Z,84878.91
2024-03-12T23:03:03.062Z,84885.53
2024-03-12T23:05:37.322Z,84881.94
2024-03-12T23:08:07.048Z,84886.00
2024-03-12T23:10:41.174Z,84891.94
2024-03-12T23:13:11.477Z,84890.03
2024-03-12T23:15:40.354Z,84876.72
2024-03-12T23:18:10.938Z,84885.63
2024-03-12T23:20:46.299Z,84882.72
2024-03-12T23:23:15.371Z,84881.66
2024-03-12T23:25:43.735Z,84880.13
2024-03-12T23:28:12.377Z,84884.53
2024-03-12T23:30:40.292Z,84881.59
2024-03-12T23:33:09.701Z,84888.25
2024-03-12T23:35:38.079Z,84892.72
2024-03-12T23:38:06.994Z,84895.00
2024-03-12T23:40:34.863Z,84894.72
2024-03-12T23:43:02.639Z,84886.25
2024-03-12T23:45:32.397Z,84886.28
2024-03-12T23:48:04.258Z,84885.56
2024-03-12T23:50:32.325Z,84888.56
2024-03-12T23:53:00.428Z,84888.56
2024-03-12T23:55:27.952Z,84882.63
2024-03-12T23:57:55.701Z,84884.84
